• Join FlightAware (Why Join?)
  • Login
  • US Flag 
06:47AM EDT


 

Airport Tracker/Info


-or-


 

Live Flight TrackerFlight Track Log ✈ VNR104 ✈ 09-May-2013 ✈ KDAL - KICR

Flight Track Log - Related Links

Times and Time Zones

All times are in EDT time to prevent confusion due to time zone crossing. See the VNR104 flight status page for this flight to view local times or setup timezone preferences in your user account.

Time Position Orientation Groundspeed Altitude Reporting Facility
EDT Latitude Longitude Course Direction KTS MPH feet Rate Location/Type
01:25PM 32.8333 -96.8333 52° Northeast 152 175 1,300  Level Dallas / Fort Worth TRACON
01:26PM 32.8667 -96.7833 52° Northeast 202 232 3,300 1,980 Climbing Dallas / Fort Worth TRACON
01:27PM 32.9167 -96.7667 16° North 199 229 5,500 1,800 Climbing Dallas / Fort Worth TRACON
01:28PM 32.9667 -96.8000 331° Northwest 229 264 6,800 1,680 Climbing Dallas / Fort Worth TRACON
01:30PM 33.0825 -96.8531 339° North 259 298 10,200 1,800 Climbing Fort Worth Center
01:31PM 33.1600 -96.8600 356° North 244 281 12,000 900 Climbing Fort Worth Center
01:32PM 33.2392 -96.8719 353° North 272 313 12,000 180 Level Fort Worth Center
01:33PM 33.3269 -96.8814 355° North 314 361 12,400 1,140 Climbing Fort Worth Center
01:34PM 33.4000 -96.8883 355° North 293 337 14,300 1,800 Climbing Fort Worth Center
01:35PM 33.4814 -96.9003 353° North 279 321 16,100 1,680 Climbing Fort Worth Center
01:36PM 33.5503 -96.9050 357° North 274 315 17,700 1,740 Climbing Fort Worth Center
01:37PM 33.6319 -96.9094 357° North 274 315 19,600 1,620 Climbing Fort Worth Center
01:38PM 33.6967 -96.9142 357° North 274 315 21,000 1,500 Climbing Fort Worth Center
01:39PM 33.7822 -96.9211 356° North 274 315 22,600 1,500 Climbing Fort Worth Center
01:40PM 33.8553 -96.9308 354° North 274 315 24,100 1,500 Climbing Fort Worth Center
01:41PM 33.9344 -96.9428 353° North 274 315 25,600 1,380 Climbing Fort Worth Center
01:42PM 34.0181 -96.9525 354° North 279 321 26,900 1,200 Climbing Fort Worth Center
01:43PM 34.1017 -96.9619 355° North 290 334 28,000 600 Climbing Fort Worth Center
01:44PM 34.1933 -96.9717 355° North 309 356 28,100 660 Climbing Fort Worth Center
01:45PM 34.2894 -96.9911 351° North 326 375 29,400 1,200 Climbing Fort Worth Center
01:46PM 34.3750 -97.0133 348° North 331 381 30,600 1,140 Climbing Fort Worth Center
01:47PM 34.4628 -97.0408 346° North 331 381 31,700 960 Climbing Fort Worth Center
01:48PM 34.5464 -97.0631 348° North 316 364 32,600 840 Climbing Fort Worth Center
01:49PM 34.6361 -97.0881 347° North 316 364 33,400 660 Climbing Fort Worth Center
01:50PM 34.7239 -97.1128 347° North 316 364 34,000 300 Climbing Fort Worth Center
01:51PM 34.8197 -97.1378 348° North 324 373 34,000  Level Fort Worth Center
01:52PM 34.9181 -97.1653 347° North 339 390 34,000  Level Fort Worth Center
01:54PM 35.0839 -97.2086 348° North 380 437 34,000  Level Kansas City Center
01:55PM 35.1881 -97.2381 347° North 384 442 34,000  Level Kansas City Center
01:56PM 35.2925 -97.2669 347° North 386 444 34,000  Level Kansas City Center
01:57PM 35.3936 -97.2956 347° North 389 448 34,000  Level Kansas City Center
01:58PM 35.5189 -97.3314 347° North 391 450 34,000  Level Kansas City Center
01:59PM 35.6236 -97.3611 347° North 391 450 34,000  Level Kansas City Center
02:00PM 35.7275 -97.3914 347° North 386 444 34,000  Level Kansas City Center
02:01PM 35.8311 -97.4206 347° North 384 442 34,000  Level Kansas City Center
02:02PM 35.9344 -97.4503 347° North 382 440 34,000  Level Kansas City Center
02:03PM 36.0375 -97.4808 347° North 382 440 34,000  Level Kansas City Center
02:04PM 36.1608 -97.5158 347° North 379 436 34,000  Level Kansas City Center
02:05PM 36.2650 -97.5472 346° North 384 442 34,000  Level Kansas City Center
02:06PM 36.3669 -97.5764 347° North 379 436 34,000  Level Kansas City Center
02:07PM 36.4714 -97.6064 347° North 382 440 34,000  Level Kansas City Center
02:08PM 36.5742 -97.6364 347° North 385 443 34,000  Level Kansas City Center
02:09PM 36.6808 -97.6692 346° North 387 445 34,000  Level Kansas City Center
02:10PM 36.8050 -97.7058 347° North 388 447 34,000  Level Kansas City Center
02:11PM 36.9100 -97.7364 347° North 387 445 34,000  Level Kansas City Center
02:12PM 37.0153 -97.7675 347° North 388 447 34,000  Level Kansas City Center
02:13PM 37.1203 -97.7978 347° North 387 445 34,000  Level Kansas City Center
02:14PM 37.2250 -97.8300 346° North 387 445 34,000  Level Kansas City Center
02:15PM 37.3292 -97.8608 347° North 385 443 34,000  Level Kansas City Center
02:16PM 37.4319 -97.8914 347° North 380 437 34,000  Level Kansas City Center
02:17PM 37.5556 -97.9289 346° North 380 437 34,000  Level Kansas City Center
02:18PM 37.6467 -97.9561 347° North 381 438 34,000  Level Kansas City Center
02:19PM 37.7711 -97.9947 346° North 382 440 34,000  Level Kansas City Center
02:21PM 37.8742 -98.0269 346° North 381 438 34,000  Level Kansas City Center
02:22PM 37.9786 -98.0586 347° North 384 442 34,000  Level Kansas City Center
02:23PM 38.0797 -98.0917 346° North 380 437 34,000  Level Kansas City Center
02:24PM 38.1822 -98.1175 349° North 380 437 34,000  Level Kansas City Center
02:25PM 38.2844 -98.1486 347° North 378 435 34,000  Level Kansas City Center
02:26PM 38.3864 -98.1797 347° North 375 432 34,000  Level Kansas City Center
02:27PM 38.4886 -98.2114 346° North 376 433 34,000  Level Kansas City Center
02:28PM 38.6100 -98.2486 347° North 376 433 34,000  Level Kansas City Center
02:29PM 38.7108 -98.2806 346° North 374 430 34,000  Level Kansas City Center
02:30PM 38.8125 -98.3103 347° North 374 430 34,000  Level Kansas City Center
02:31PM 38.9117 -98.3417 346° North 370 426 34,000  Level Kansas City Center
02:32PM 39.0111 -98.3725 346° North 368 423 34,000  Level Kansas City Center
02:33PM 39.1108 -98.4042 346° North 367 422 34,000  Level Kansas City Center
02:34PM 39.2156 -98.4372 346° North 366 421 34,000  Level Kansas City Center
02:35PM 39.3131 -98.4681 346° North 361 415 34,000  Level Kansas City Center
02:35PM 39.3522 -98.4803 346° North 366 421 34,000  Level Denver Center
02:36PM 39.4519 -98.5131 346° North 368 423 34,000  Level Denver Center
02:37PM 39.5528 -98.5439 347° North 371 427 34,000  Level Denver Center
02:38PM 39.6533 -98.5769 346° North 371 427 34,000  Level Denver Center
02:39PM 39.7539 -98.6089 346° North 370 426 34,000  Level Denver Center
02:40PM 39.8539 -98.6431 345° North 370 426 34,000  Level Minneapolis Center
02:41PM 39.9533 -98.6733 347° North 367 422 34,000  Level Denver Center
02:42PM 40.0722 -98.7117 346° North 367 422 34,000  Level Minneapolis Center
02:43PM 40.1714 -98.7436 346° North 366 421 34,000  Level Minneapolis Center
02:44PM 40.2703 -98.7764 346° North 365 420 34,000  Level Minneapolis Center
02:46PM 40.3694 -98.8081 346° North 367 422 34,000  Level Minneapolis Center
02:47PM 40.4683 -98.8414 346° North 365 420 34,000  Level Minneapolis Center
02:48PM 40.5667 -98.8733 346° North 364 419 34,000  Level Minneapolis Center
02:49PM 40.6647 -98.9050 346° North 362 417 34,000  Level Minneapolis Center
02:50PM 40.7717 -98.9403 346° North 365 420 34,000  Level Minneapolis Center
02:51PM 40.8719 -98.9744 346° North 369 425 34,000  Level Minneapolis Center
02:52PM 40.9739 -99.0075 346° North 374 430 34,000  Level Minneapolis Center
02:53PM 41.0950 -99.0486 346° North 374 430 34,000  Level Minneapolis Center
02:54PM 41.1903 -99.0794 346° North 373 429 34,000  Level Denver Center
02:55PM 41.2950 -99.1144 346° North 374 430 34,000  Level Denver Center
02:56PM 41.3967 -99.1478 346° North 373 429 34,000  Level Denver Center
02:57PM 41.4981 -99.1817 346° North 373 429 34,000  Level Denver Center
02:58PM 41.5992 -99.2167 345° North 374 430 34,000  Level Denver Center
02:59PM 41.7214 -99.2578 346° North 375 432 34,000  Level Denver Center
03:00PM 41.8228 -99.2917 346° North 375 432 34,000  Level Denver Center
03:01PM 41.9247 -99.3267 346° North 376 433 34,000 -240 Level Denver Center
03:02PM 42.0264 -99.3606 346° North 375 432 33,600 -1,500 Descending Denver Center
03:03PM 42.1297 -99.3975 345° North 382 440 31,000 -2,520 Descending Denver Center
03:04PM 42.2292 -99.4322 346° North 370 426 28,400 -2,700 Descending Denver Center
03:05PM 42.3278 -99.4622 347° North 363 418 25,500 -3,060 Descending Denver Center
03:06PM 42.4414 -99.4922 349° North 345 397 22,100 -3,000 Descending Denver Center
03:07PM 42.5300 -99.5153 349° North 327 376 19,300 -2,640 Descending Denver Center
03:08PM 42.6142 -99.5408 347° North 313 360 16,700 -2,640 Descending Denver Center
03:09PM 42.6961 -99.5625 349° North 303 349 13,800 -2,760 Descending Minneapolis Center
03:10PM 42.7733 -99.5856 348° North 287 330 11,000 -2,220 Descending Minneapolis Center
03:11PM 42.8539 -99.6044 350° North 279 321 9,300 -1,680 Descending Minneapolis Center
03:13PM 42.9612 -99.6602 339° North  Level FlightAware Approximate
03:20PM 43.3833 -99.8333 North  Level FlightAware Approximate
03:21PM 43.3903 -99.8422 North  Level Estimated
03:22PM 43.3903 -99.8422 North  Level Estimated